Flight Track Log - Related Links

Times and Time Zones

All times are in EDT time to prevent confusion due to time zone crossing. See the DAL1981 flight status page for this flight to view local times or setup timezone preferences in your user account.

Time Position Orientation Groundspeed Altitude Reporting Facility
EDT Latitude Longitude Course Direction KTS MPH feet Rate Location/Type
Sun 03:54:32 PM 38.6622 -121.5742 78° East 188 216 1,400  Level Oakland Center
Sun 03:54:47 PM 38.6500 -121.5500 123° Southeast 193 222 1,800 1,600 Climbing Northern Cal TRACON
Sun 03:55:47 PM 38.6167 -121.4667 117° Southeast 267 307 3,400 2,250 Climbing Northern Cal TRACON
Sun 03:56:47 PM 38.6167 -121.3667 90° East 283 326 6,300 2,642 Climbing Northern Cal TRACON
Sun 03:57:36 PM 38.6239 -121.3017 82° East 296 341 8,200 2,324 Climbing Oakland Center
Sun 03:58:00 PM 38.5664 -120.9187 78° East  Level FlightAware Approximate
Sun 03:58:38 PM 38.6342 -121.1981 83° East 303 349 10,600  Level Oakland Center
Sun 03:59:00 PM 38.5939 -120.7534 78° East  Level FlightAware Approximate
Sun 03:59:39 PM 38.6467 -121.0497 84° East 358 412 12,100  Level Oakland Center
Sun 04:00:40 PM 38.6586 -120.9108 84° East 386 444 14,400 2,683 Climbing Oakland Center
Sun 04:01:42 PM 38.6703 -120.7722 84° East 391 450 17,600 2,098 Climbing Oakland Center
Sun 04:02:43 PM 38.6822 -120.6356 84° East 386 444 18,700 1,171 Climbing Oakland Center
Sun 04:03:45 PM 38.7553 -120.5150 52° Northeast 429 494 20,000 1,463 Climbing Oakland Center
Sun 04:04:46 PM 38.8397 -120.3986 47° Northeast 442 509 21,700 1,561 Climbing Oakland Center
Sun 04:05:48 PM 38.9244 -120.2811 47° Northeast 446 513 23,200 1,317 Climbing Oakland Center
Sun 04:06:49 PM 39.0111 -120.1606 47° Northeast 456 525 24,400 1,220 Climbing Oakland Center
Sun 04:07:51 PM 39.1069 -120.0275 47° Northeast 468 539 25,700 1,122 Climbing Oakland Center
Sun 04:08:52 PM 39.1992 -119.9000 47° Northeast 480 552 26,700 634 Climbing Oakland Center
Sun 04:09:54 PM 39.2933 -119.7689 47° Northeast 495 570 27,000 634 Climbing Oakland Center
Sun 04:10:55 PM 39.4075 -119.6119 47° Northeast 497 572 28,000 1,082 Climbing Oakland Center
Sun 04:11:56 PM 39.5006 -119.4783 48° Northeast 497 572 29,200 1,122 Climbing Oakland Center
Sun 04:12:58 PM 39.5931 -119.3458 48° Northeast 494 568 30,300 1,024 Climbing Oakland Center
Sun 04:13:59 PM 39.6867 -119.2128 48° Northeast 494 568 31,300 927 Climbing Oakland Center
Sun 04:15:01 PM 39.7806 -119.0772 48° Northeast 499 574 32,200 829 Climbing Oakland Center
Sun 04:16:02 PM 39.8756 -118.9411 48° Northeast 503 579 33,000 780 Climbing Oakland Center
Sun 04:17:04 PM 39.9694 -118.8056 48° Northeast 501 577 33,800 683 Climbing Oakland Center
Sun 04:18:05 PM 40.0631 -118.6667 49° Northeast 505 581 34,400 585 Climbing Oakland Center
Sun 04:19:07 PM 40.1394 -118.5125 57° Northeast 503 579 35,000 303 Climbing Oakland Center
Sun 04:20:04 PM 40.1867 -118.3583 68° East 501 577 35,000  Level Salt Lake Center
Sun 04:21:06 PM 40.2383 -118.1664 71° East 501 577 35,000  Level Salt Lake Center
Sun 04:22:11 PM 40.2906 -117.9742 70° East 503 579 35,000  Level Oakland Center
Sun 04:23:13 PM 40.3347 -117.8094 71° East 501 577 35,000  Level Oakland Center
Sun 04:24:11 PM 40.3783 -117.6453 71° East 498 573 35,000  Level Salt Lake Center
Sun 04:25:12 PM 40.4297 -117.4544 70° East 496 571 35,000  Level Salt Lake Center
Sun 04:26:14 PM 40.4731 -117.2894 71° East 498 573 35,000  Level Salt Lake Center
Sun 04:27:16 PM 40.5175 -117.1244 70° East 496 571 35,000  Level Salt Lake Center
Sun 04:28:17 PM 40.5689 -116.9283 71° East 499 574 35,000  Level Salt Lake Center
Sun 04:29:19 PM 40.6294 -116.7703 63° Northeast 499 574 35,000  Level Salt Lake Center
Sun 04:30:21 PM 40.6903 -116.6133 63° Northeast 499 574 35,000  Level Salt Lake Center
Sun 04:31:22 PM 40.7608 -116.4306 63° Northeast 499 574 35,000  Level Salt Lake Center
Sun 04:32:24 PM 40.8208 -116.2739 63° Northeast 499 574 35,000  Level Salt Lake Center
Sun 04:33:26 PM 40.8933 -116.0894 62° Northeast 504 580 35,000  Level Salt Lake Center
Sun 04:34:28 PM 40.9525 -115.9328 63° Northeast 500 575 35,000  Level Salt Lake Center
Sun 04:35:29 PM 41.0117 -115.7758 63° Northeast 498 573 35,000  Level Salt Lake Center
Sun 04:36:31 PM 41.0811 -115.5928 63° Northeast 497 572 35,000  Level Salt Lake Center
Sun 04:37:33 PM 41.1403 -115.4339 64° Northeast 500 575 35,000  Level Salt Lake Center
Sun 04:38:35 PM 41.2086 -115.2492 64° Northeast 499 574 35,000  Level Salt Lake Center
Sun 04:39:36 PM 41.2669 -115.0919 64° Northeast 497 572 35,000  Level Salt Lake Center
Sun 04:40:38 PM 41.3350 -114.9072 64° Northeast 498 573 35,000  Level Salt Lake Center
Sun 04:41:40 PM 41.3953 -114.7408 64° Northeast 497 572 35,000  Level Salt Lake Center
Sun 04:42:42 PM 41.4558 -114.5764 64° Northeast 496 571 35,000  Level Salt Lake Center
Sun 04:43:43 PM 41.5164 -114.4106 64° Northeast 497 572 35,000  Level Salt Lake Center
Sun 04:44:45 PM 41.5761 -114.2450 64° Northeast 496 571 35,000  Level Salt Lake Center
Sun 04:45:47 PM 41.6347 -114.0781 65° Northeast 496 571 35,000  Level Salt Lake Center
Sun 04:46:48 PM 41.6944 -113.9111 64° Northeast 497 572 35,000  Level Salt Lake Center
Sun 04:47:50 PM 41.7658 -113.7119 64° Northeast 495 570 35,000  Level Salt Lake Center
Sun 04:48:52 PM 41.8242 -113.5442 65° Northeast 496 571 35,000  Level Salt Lake Center
Sun 04:49:54 PM 41.8831 -113.3764 65° Northeast 497 572 35,000  Level Salt Lake Center
Sun 04:50:55 PM 41.9417 -113.2081 65° Northeast 498 573 35,000  Level Salt Lake Center
Sun 04:51:57 PM 41.9994 -113.0403 65° Northeast 495 570 35,000  Level Salt Lake Center
Sun 04:52:59 PM 42.0569 -112.8697 66° East 499 574 35,000  Level Salt Lake Center
Sun 04:54:01 PM 42.1144 -112.7022 65° Northeast 494 568 35,000  Level Salt Lake Center
Sun 04:55:02 PM 42.1719 -112.5322 65° Northeast 497 572 35,000  Level Salt Lake Center
Sun 04:56:04 PM 42.2400 -112.3281 66° East 498 573 35,000  Level Salt Lake Center
Sun 04:57:06 PM 42.2958 -112.1553 66° East 501 577 35,000  Level Salt Lake Center
Sun 04:58:07 PM 42.3517 -111.9847 66° East 498 573 35,000  Level Salt Lake Center
Sun 04:59:11 PM 42.4067 -111.8125 67° East 498 573 35,000  Level Salt Lake Center
Sun 05:00:12 PM 42.4619 -111.6414 66° East 498 573 35,000  Level Salt Lake Center
Sun 05:01:14 PM 42.5169 -111.4692 67° East 498 573 35,000  Level Salt Lake Center
Sun 05:02:16 PM 42.5717 -111.2956 67° East 499 574 35,000  Level Salt Lake Center
Sun 05:03:18 PM 42.6375 -111.0881 67° East 500 575 35,000  Level Salt Lake Center
Sun 05:04:19 PM 42.6861 -110.9292 67° East 499 574 35,000  Level Salt Lake Center
Sun 05:05:21 PM 42.7419 -110.7522 67° East 505 581 35,000  Level Salt Lake Center
Sun 05:06:23 PM 42.8017 -110.5575 67° East 502 578 35,000  Level Salt Lake Center
Sun 05:07:25 PM 42.8531 -110.3894 67° East 502 578 35,000  Level Salt Lake Center
Sun 05:08:27 PM 42.9128 -110.1922 67° East 505 581 35,000  Level Salt Lake Center
Sun 05:09:28 PM 42.9633 -110.0236 68° East 504 580 35,000  Level Salt Lake Center
Sun 05:10:30 PM 43.0189 -109.8389 68° East 503 579 35,000  Level Salt Lake Center
Sun 05:11:32 PM 43.0781 -109.6406 68° East 506 582 35,000  Level Salt Lake Center
Sun 05:12:34 PM 43.1275 -109.4714 68° East 503 579 35,000  Level Salt Lake Center
Sun 05:13:36 PM 43.1850 -109.2747 68° East 500 575 35,000  Level Salt Lake Center
Sun 05:14:37 PM 43.2344 -109.1044 68° East 503 579 35,000  Level Salt Lake Center
Sun 05:15:39 PM 43.2831 -108.9339 69° East 501 577 35,000  Level Salt Lake Center
Sun 05:16:41 PM 43.3403 -108.7358 68° East 501 577 35,000  Level Salt Lake Center
Sun 05:17:43 PM 43.3922 -108.5553 68° East 505 581 35,000  Level Salt Lake Center
Sun 05:18:45 PM 43.4481 -108.3561 69° East 500 575 35,000  Level Salt Lake Center
Sun 05:19:47 PM 43.4939 -108.1953 69° East 502 578 35,000  Level Salt Lake Center
Sun 05:20:49 PM 43.5533 -107.9967 68° East 503 579 35,000  Level Salt Lake Center
Sun 05:21:51 PM 43.6033 -107.8269 68° East 500 575 35,000  Level Salt Lake Center
Sun 05:22:52 PM 43.6614 -107.6269 68° East 503 579 35,000  Level Salt Lake Center
Sun 05:23:54 PM 43.7103 -107.4567 68° East 500 575 35,000  Level Salt Lake Center
Sun 05:24:56 PM 43.7658 -107.2597 69° East 495 570 35,000  Level Salt Lake Center
Sun 05:25:58 PM 43.8142 -107.0878 69° East 500 575 35,000  Level Salt Lake Center
Sun 05:27:00 PM 43.8683 -106.8853 70° East 505 581 35,000  Level Salt Lake Center
Sun 05:28:02 PM 43.8894 -106.6939 81° East 505 581 35,000  Level Salt Lake Center
Sun 05:29:19 PM 43.9164 -106.4464 81° East 499 574 35,000  Level Denver Center
Sun 05:30:06 PM 43.9325 -106.2933 82° East 504 580 35,000  Level Salt Lake Center
Sun 05:31:08 PM 43.9503 -106.1108 82° East 500 575 35,000  Level Salt Lake Center
Sun 05:31:24 PM 43.9561 -106.0503 82° East 498 573 35,000  Level Denver Center
Sun 05:32:26 PM 43.9744 -105.8653 82° East 502 578 35,000  Level Denver Center
Sun 05:33:28 PM 43.9931 -105.6506 83° East 502 578 35,000  Level Denver Center
Sun 05:34:30 PM 44.0103 -105.4642 83° East 505 581 35,000  Level Denver Center
Sun 05:35:32 PM 44.0297 -105.2492 83° East 503 579 35,000  Level Denver Center
Sun 05:36:34 PM 44.0458 -105.0656 83° East 501 577 35,000  Level Denver Center
Sun 05:37:36 PM 44.0611 -104.8811 83° East 500 575 35,000  Level Denver Center
Sun 05:38:38 PM 44.0794 -104.6647 83° East 502 578 35,000  Level Denver Center
Sun 05:39:40 PM 44.0950 -104.4778 83° East 506 582 35,000  Level Denver Center
Sun 05:40:42 PM 44.1117 -104.2594 84° East 507 583 35,000  Level Denver Center
Sun 05:41:44 PM 44.1267 -104.0736 84° East 507 583 35,000  Level Denver Center
Sun 05:42:46 PM 44.1433 -103.8544 84° East 509 586 35,000  Level Denver Center
Sun 05:44:00 PM 44.1575 -103.6694 84° East 503 579 35,000  Level Denver Center
Sun 05:45:03 PM 44.1758 -103.4244 84° East 500 575 35,000 -48 Level Denver Center
Sun 05:46:05 PM 44.1886 -103.2419 84° East 495 570 34,900  Descending Denver Center
Sun 05:47:07 PM 44.2025 -103.0439 84° East 500 575 35,000 48 Climbing Denver Center
Sun 05:48:09 PM 44.2150 -102.8497 85° East 503 579 35,000  Level Denver Center
Sun 05:49:11 PM 44.2303 -102.6189 85° East 500 575 35,000  Level Denver Center
Sun 05:50:13 PM 44.2442 -102.4269 84° East 499 574 35,000  Level Denver Center
Sun 05:51:15 PM 44.2539 -102.2339 86° East 499 574 35,000  Level Denver Center
Sun 05:52:17 PM 44.2644 -102.0439 85° East 496 571 35,000  Level Denver Center
Sun 05:53:19 PM 44.2764 -101.8533 85° East 495 570 35,000  Level Denver Center
Sun 05:54:21 PM 44.2842 -101.6614 87° East 496 571 35,000  Level Denver Center
Sun 05:55:23 PM 44.2958 -101.4336 86° East 493 567 35,000  Level Denver Center
Sun 05:56:07 PM 44.3042 -101.3211 84° East 493 567 35,000  Level Minneapolis Center
Sun 05:57:09 PM 44.3136 -101.1319 86° East 492 566 35,000  Level Minneapolis Center
Sun 05:57:27 PM 44.3164 -101.0528 87° East 494 568 35,000  Level Denver Center
Sun 05:58:11 PM 44.3261 -100.9031 85° East 494 568 35,000  Level Minneapolis Center
Sun 05:59:13 PM 44.3353 -100.7125 86° East 494 568 35,000  Level Minneapolis Center
Sun 06:00:15 PM 44.3447 -100.5233 86° East 492 566 35,000  Level Minneapolis Center
Sun 06:01:16 PM 44.3539 -100.3314 86° East 496 571 35,000  Level Minneapolis Center
Sun 06:02:18 PM 44.3617 -100.1403 87° East 497 572 35,000  Level Minneapolis Center
Sun 06:03:20 PM 44.3697 -99.9478 87° East 499 574 35,000  Level Minneapolis Center
Sun 06:04:22 PM 44.3803 -99.7178 86° East 498 573 35,000  Level Minneapolis Center
Sun 06:05:24 PM 44.3869 -99.5269 87° East 497 572 35,000  Level Minneapolis Center
Sun 06:06:26 PM 44.3953 -99.3342 86° East 499 574 35,000  Level Minneapolis Center
Sun 06:07:28 PM 44.4017 -99.1419 87° East 497 572 35,000  Level Minneapolis Center
Sun 06:08:29 PM 44.4083 -98.9506 87° East 496 571 35,000  Level Minneapolis Center
Sun 06:09:31 PM 44.4147 -98.7600 87° East 493 567 35,000  Level Minneapolis Center
Sun 06:10:33 PM 44.4203 -98.5283 88° East 497 572 35,000  Level Minneapolis Center
Sun 06:11:35 PM 44.4256 -98.3372 88° East 495 570 35,000  Level Minneapolis Center
Sun 06:12:37 PM 44.4297 -98.1669 88° East 495 570 35,000  Level Minneapolis Center
Sun 06:13:39 PM 44.4358 -97.9358 88° East 497 572 35,000  Level Minneapolis Center
Sun 06:14:52 PM 44.4394 -97.7422 88° East 498 573 35,000  Level Minneapolis Center
Sun 06:15:55 PM 44.4442 -97.5114 88° East 498 573 35,000 -48 Level Minneapolis Center
Sun 06:16:58 PM 44.4481 -97.3186 88° East 497 572 34,900 -528 Descending Minneapolis Center
Sun 06:18:00 PM 44.4511 -97.1222 89° East 504 580 33,900 -1,065 Descending Minneapolis Center
Sun 06:19:02 PM 44.4553 -96.8800 89° East 517 595 32,700 -1,016 Descending Minneapolis Center
Sun 06:20:04 PM 44.4589 -96.6753 89° East 522 601 31,800 -968 Descending Minneapolis Center
Sun 06:21:06 PM 44.4606 -96.4722 89° East 521 600 30,700 -968 Descending Minneapolis Center
Sun 06:22:08 PM 44.4622 -96.2828 89° East 486 559 29,800 -919 Descending Minneapolis Center
Sun 06:23:10 PM 44.4656 -96.1006 88° East 466 536 28,800 -919 Descending Minneapolis Center
Sun 06:24:12 PM 44.4664 -95.9192 90° East 463 533 27,900 -919 Descending Minneapolis Center
Sun 06:25:14 PM 44.4667 -95.7436 90° East 455 524 26,900 -976 Descending Minneapolis Center
Sun 06:26:15 PM 44.4675 -95.5694 90° East 449 517 25,900 -927 Descending Minneapolis Center
Sun 06:27:17 PM 44.4678 -95.3933 90° East 449 517 25,000 -1,016 Descending Minneapolis Center
Sun 06:28:19 PM 44.4669 -95.1728 90° East 468 539 23,800 -1,147 Descending Minneapolis Center
Sun 06:29:33 PM 44.5053 -94.9692 75° East 451 519 22,400 -1,676 Descending Minneapolis Center
Sun 06:30:35 PM 44.5436 -94.8089 71° East 440 506 20,000 -2,274 Descending Minneapolis Center
Sun 06:31:37 PM 44.5800 -94.6497 72° East 432 497 17,700 -2,074 Descending Minneapolis Center
Sun 06:32:51 PM 44.6161 -94.4989 71° East 420 483 15,300 -2,453 Descending Minneapolis Center
Sun 06:33:54 PM 44.6644 -94.2844 72° East 418 481 12,100 -2,064 Descending Minneapolis Center
Sun 06:34:56 PM 44.6989 -94.1364 72° East 400 460 11,000 -629 Descending Minneapolis Center
Sun 06:35:58 PM 44.7314 -93.9853 73° East 404 465 10,800 -439 Descending Minneapolis Center
Sun 06:36:59 PM 44.7561 -93.8756 72° East 371 427 10,100 -878 Descending Minneapolis Center
Sun 06:38:01 PM 44.7875 -93.7369 72° East 311 358 9,000 -532 Descending Minneapolis Center
Sun 06:39:03 PM 44.8133 -93.6183 73° East 316 364 9,000  Level Minneapolis Center
Sun 06:40:05 PM 44.8389 -93.5008 73° East 313 360 9,000 -435 Level Minneapolis Center
Sun 06:41:07 PM 44.8647 -93.3789 73° East 270 311 8,100 -823 Descending Minneapolis Center
Sun 06:42:09 PM 44.8139 -93.3214 141° Southeast 253 291 7,300 -1,152 Descending Minneapolis Center
Sun 06:43:12 PM 44.7486 -93.3158 177° South 242 278 5,700 -1,440 Descending Minneapolis Center
Sun 06:44:14 PM 44.6944 -93.2828 157° South 250 288 4,300 -1,016 Descending Minneapolis Center
Sun 06:45:16 PM 44.7294 -93.2128 55° Northeast 202 232 3,600 -677 Descending Minneapolis Center

Login

Don't have an account? Register now (free) for customized features, flight alerts, and more!